Anemona — 3EUT9 — position and weather

sailwx.info

Track history (hours):
 
Tides and Currents Weather Stations Pressure Air Temp Water Temp Dewpoint Dewpoint Depression Visibility Wind Speed Wind Dir Waves Ship Positions

Anemona

Last reported at 2018-Feb-14 22:37 UTC. Time now 2018-Feb-22 09:10 UTC.
Position N 01°18' E 103°20'.

Length 192 m; draft 7.5 m.

Type: Cargo ship. MMSI: 355664000.

Date/timePositionNaut miles runAvg speedWind from/ knotsBaromVisibWave heightAir tempDewpointWater temp
2018-Feb-14 22:37N 01°18' E 103°20'215.6
2018-Feb-14 22:30N 01°17' E 103°21'815.8
2018-Feb-14 22:00N 01°13' E 103°28'815.7
2018-Feb-14 21:30N 01°12' E 103°36'712.6
2018-Feb-14 20:58N 01°09' E 103°42'4 8.0
2018-Feb-14 20:30N 01°09' E 103°46'611.2
2018-Feb-14 19:58N 01°12' E 103°51'4 9.8
2018-Feb-14 19:30N 01°14' E 103°55'714.4
2018-Feb-14 19:01N 01°16' E 104°02'  
2018-Feb-10 19:44N 20°41' E 114°06'714.3
2018-Feb-10 19:12N 20°48' E 114°08'314.3
2018-Feb-10 18:59N 20°52' E 114°09'84 9.6
2018-Feb-10 10:12N 22°16' E 114°06'  
Track history (hours):
 
Tides and Currents Weather Stations Pressure Air Temp Water Temp Dewpoint Dewpoint Depression Visibility Wind Speed Wind Dir Waves Ship Positions

Anemona

Last reported at 2018-Feb-14 22:37 UTC. Time now 2018-Feb-22 09:10 UTC.
Position N 01°18' E 103°20'.

Length 192 m; draft 7.5 m.

Type: Cargo ship. MMSI: 355664000.

Date/timePositionNaut miles runAvg speedWind from/ knotsBaromVisibWave heightAir tempDewpointWater temp
2018-Feb-14 22:37N 01°18' E 103°20'215.6
2018-Feb-14 22:30N 01°17' E 103°21'815.8
2018-Feb-14 22:00N 01°13' E 103°28'815.7
2018-Feb-14 21:30N 01°12' E 103°36'712.6
2018-Feb-14 20:58N 01°09' E 103°42'4 8.0
2018-Feb-14 20:30N 01°09' E 103°46'611.2
2018-Feb-14 19:58N 01°12' E 103°51'4 9.8
2018-Feb-14 19:30N 01°14' E 103°55'714.4
2018-Feb-14 19:01N 01°16' E 104°02'  
2018-Feb-10 19:44N 20°41' E 114°06'714.3
2018-Feb-10 19:12N 20°48' E 114°08'314.3
2018-Feb-10 18:59N 20°52' E 114°09'84 9.6
2018-Feb-10 10:12N 22°16' E 114°06'  

Dump ship's entire track history